createdAt,value
2023-01-29T00:02:05.794Z,49.50
2023-01-29T00:04:33.816Z,51.22
2023-01-29T00:07:01.311Z,46.38
2023-01-29T00:09:31.343Z,50.13
2023-01-29T00:11:59.148Z,55.30
2023-01-29T00:14:27.482Z,52.63
2023-01-29T00:16:55.070Z,49.78
2023-01-29T00:19:22.621Z,49.03
2023-01-29T00:21:50.142Z,48.50
2023-01-29T00:24:17.755Z,55.33
2023-01-29T00:26:46.643Z,53.55
2023-01-29T00:29:14.657Z,52.85
2023-01-29T00:31:46.046Z,51.35
2023-01-29T00:34:13.748Z,55.65
2023-01-29T00:36:41.223Z,53.55
2023-01-29T00:39:11.345Z,54.45
2023-01-29T00:41:56.820Z,57.47
2023-01-29T00:44:43.435Z,56.05
2023-01-29T00:47:30.632Z,52.83
2023-01-29T00:49:58.639Z,48.63
2023-01-29T00:52:26.548Z,52.05
2023-01-29T00:54:55.365Z,54.50
2023-01-29T00:57:23.356Z,54.55
2023-01-29T00:59:52.457Z,51.28
2023-01-29T01:02:49.545Z,52.63
2023-01-29T01:05:18.817Z,58.70
2023-01-29T01:07:47.327Z,52.53
2023-01-29T01:10:22.315Z,48.03
2023-01-29T01:12:53.373Z,51.50
2023-01-29T01:15:23.457Z,54.67
2023-01-29T01:17:54.282Z,56.58
2023-01-29T01:20:21.949Z,57.30
2023-01-29T01:22:49.490Z,58.90
2023-01-29T01:25:17.532Z,61.90
2023-01-29T01:27:45.375Z,60.58
2023-01-29T01:30:16.218Z,53.92
2023-01-29T01:32:45.712Z,61.85
2023-01-29T01:35:14.695Z,56.92
2023-01-29T01:37:42.827Z,56.65
2023-01-29T01:40:18.453Z,58.72
2023-01-29T01:42:48.522Z,57.53
2023-01-29T01:45:21.202Z,57.30
2023-01-29T01:47:53.498Z,57.65
2023-01-29T01:50:25.606Z,62.50
2023-01-29T01:52:56.649Z,55.38
2023-01-29T01:55:27.430Z,59.88
2023-01-29T01:58:00.472Z,55.55
2023-01-29T02:00:28.130Z,58.00
2023-01-29T02:03:14.764Z,60.75
2023-01-29T02:06:00.369Z,60.28
2023-01-29T02:08:52.636Z,49.25
2023-01-29T02:11:20.759Z,59.90
2023-01-29T02:13:53.407Z,56.15
2023-01-29T02:16:21.692Z,59.47
2023-01-29T02:18:51.582Z,54.20
2023-01-29T02:21:42.504Z,58.10
2023-01-29T02:24:31.061Z,61.60
2023-01-29T02:27:06.965Z,61.25
2023-01-29T02:29:46.999Z,56.45
2023-01-29T02:32:22.043Z,51.97
2023-01-29T02:35:19.149Z,57.90
2023-01-29T02:37:56.211Z,61.65
2023-01-29T02:40:30.157Z,56.40
2023-01-29T02:43:03.962Z,57.05
2023-01-29T02:45:38.446Z,59.55
2023-01-29T02:48:06.805Z,56.03
2023-01-29T02:50:41.877Z,59.58
2023-01-29T02:53:13.942Z,51.38
2023-01-29T02:55:47.118Z,57.50
2023-01-29T02:58:19.711Z,61.05
2023-01-29T03:00:50.117Z,62.92
2023-01-29T03:03:21.375Z,54.97
2023-01-29T03:05:58.706Z,59.97
2023-01-29T03:08:43.079Z,68.63
2023-01-29T03:11:14.010Z,63.13
2023-01-29T03:13:46.238Z,63.30
2023-01-29T03:16:21.670Z,57.20
2023-01-29T03:21:55.156Z,59.22
2023-01-29T03:24:49.320Z,62.50
2023-01-29T03:27:39.717Z,62.20
2023-01-29T03:30:29.650Z,61.42
2023-01-29T03:33:03.657Z,68.53
2023-01-29T03:35:36.464Z,62.20
2023-01-29T03:38:05.010Z,70.55
2023-01-29T03:40:41.035Z,69.30
2023-01-29T03:43:14.921Z,67.18
2023-01-29T03:45:56.157Z,68.13
2023-01-29T03:48:32.924Z,70.85
2023-01-29T03:51:05.696Z,68.15
2023-01-29T03:53:44.123Z,69.15
2023-01-29T03:56:28.471Z,63.22
2023-01-29T03:59:02.450Z,67.65
2023-01-29T04:01:34.416Z,69.50
2023-01-29T04:04:11.063Z,63.58
2023-01-29T04:06:43.677Z,67.05
2023-01-29T04:09:15.738Z,67.95
2023-01-29T04:11:48.674Z,68.40
2023-01-29T04:14:16.345Z,72.75
2023-01-29T04:16:49.565Z,68.65
2023-01-29T04:19:18.870Z,70.13
2023-01-29T04:21:49.863Z,71.28
2023-01-29T04:24:18.234Z,69.43
2023-01-29T04:26:56.888Z,73.43
2023-01-29T04:29:41.440Z,65.82
2023-01-29T04:32:16.025Z,62.17
2023-01-29T04:34:59.210Z,65.75
2023-01-29T04:37:36.190Z,66.65
2023-01-29T04:40:16.069Z,69.28
2023-01-29T04:42:51.081Z,67.75
2023-01-29T04:45:27.061Z,66.95
2023-01-29T04:48:04.650Z,66.68
2023-01-29T04:50:38.203Z,69.80
2023-01-29T04:53:11.937Z,75.13
2023-01-29T04:55:44.634Z,68.53
2023-01-29T04:58:17.751Z,63.13
2023-01-29T05:00:49.101Z,65.90
2023-01-29T05:03:17.430Z,69.43
2023-01-29T05:05:48.947Z,64.22
2023-01-29T05:08:21.376Z,68.30
2023-01-29T05:10:50.633Z,67.88
2023-01-29T05:13:20.582Z,66.03
2023-01-29T05:15:53.326Z,67.32
2023-01-29T05:18:21.317Z,63.47
2023-01-29T05:20:51.158Z,69.50
2023-01-29T05:23:20.529Z,61.50
2023-01-29T05:25:49.118Z,60.13
2023-01-29T05:28:16.373Z,73.25
2023-01-29T05:30:45.349Z,67.43
2023-01-29T05:33:15.321Z,68.47
2023-01-29T05:35:43.161Z,53.85
2023-01-29T05:38:12.314Z,56.83
2023-01-29T05:40:39.930Z,59.20
2023-01-29T05:43:14.614Z,56.00
2023-01-29T05:45:42.133Z,56.67
2023-01-29T05:48:09.676Z,56.58
2023-01-29T05:50:37.161Z,55.67
2023-01-29T05:53:05.675Z,55.67
2023-01-29T05:55:34.561Z,54.58
2023-01-29T05:58:03.186Z,51.35
2023-01-29T06:00:32.407Z,51.65
2023-01-29T06:03:00.223Z,56.75
2023-01-29T06:05:27.721Z,46.40
2023-01-29T06:07:55.256Z,52.78
2023-01-29T06:10:22.710Z,52.22
2023-01-29T06:12:51.529Z,47.55
2023-01-29T06:15:19.716Z,46.58
2023-01-29T06:17:47.234Z,44.83
2023-01-29T06:20:15.401Z,51.63
2023-01-29T06:22:43.165Z,48.83
2023-01-29T06:25:10.934Z,48.40
2023-01-29T06:27:38.480Z,52.03
2023-01-29T06:30:09.061Z,46.97
2023-01-29T06:32:36.702Z,54.63
2023-01-29T06:35:04.752Z,45.63
2023-01-29T06:37:32.250Z,48.83
2023-01-29T06:39:59.724Z,54.28
2023-01-29T06:42:27.956Z,45.05
2023-01-29T06:44:55.660Z,49.78
2023-01-29T06:47:25.126Z,49.90
2023-01-29T06:49:52.596Z,47.55
2023-01-29T06:52:20.182Z,48.15
2023-01-29T06:54:47.714Z,47.97
2023-01-29T06:57:15.218Z,52.08
2023-01-29T06:59:42.790Z,47.42
2023-01-29T07:02:10.306Z,47.83
2023-01-29T07:04:39.335Z,44.38
2023-01-29T07:07:12.662Z,49.72
2023-01-29T07:09:41.711Z,51.20
2023-01-29T07:12:09.798Z,49.83
2023-01-29T07:14:37.620Z,51.10
2023-01-29T07:17:05.133Z,46.47
2023-01-29T07:19:32.617Z,48.67
2023-01-29T07:22:02.362Z,47.30
2023-01-29T07:24:30.022Z,50.00
2023-01-29T07:26:57.769Z,56.95
2023-01-29T07:29:25.268Z,51.22
2023-01-29T07:31:52.905Z,51.65
2023-01-29T07:34:20.594Z,51.08
2023-01-29T07:36:48.085Z,50.20
2023-01-29T07:39:16.968Z,50.65
2023-01-29T07:41:44.505Z,51.60
2023-01-29T07:44:12.118Z,53.20
2023-01-29T07:46:39.585Z,49.58
2023-01-29T07:49:07.122Z,49.25
2023-01-29T07:51:34.627Z,53.83
2023-01-29T07:54:02.124Z,48.97
2023-01-29T07:56:30.988Z,48.33
2023-01-29T07:58:58.599Z,52.33
2023-01-29T08:01:26.128Z,52.50
2023-01-29T08:03:53.714Z,49.33
2023-01-29T08:06:21.199Z,56.13
2023-01-29T08:08:48.943Z,54.35
2023-01-29T08:11:16.495Z,52.42
2023-01-29T08:13:46.551Z,48.42
2023-01-29T08:16:14.145Z,54.30
2023-01-29T08:18:43.953Z,53.03
2023-01-29T08:21:13.074Z,48.88
2023-01-29T08:23:41.519Z,52.70
2023-01-29T08:26:09.601Z,55.28
2023-01-29T08:28:38.580Z,52.38
2023-01-29T08:31:14.510Z,50.80
2023-01-29T08:33:42.076Z,46.38
2023-01-29T08:36:10.816Z,51.50
2023-01-29T08:38:38.582Z,48.25
2023-01-29T08:41:06.484Z,52.67
2023-01-29T08:43:35.185Z,53.03
2023-01-29T08:46:04.298Z,52.65
2023-01-29T08:48:33.425Z,58.95
2023-01-29T08:51:02.208Z,52.65
2023-01-29T08:53:29.762Z,52.60
2023-01-29T08:55:57.312Z,53.28
2023-01-29T08:58:24.795Z,46.35
2023-01-29T09:00:52.301Z,53.85
2023-01-29T09:03:19.839Z,52.85
2023-01-29T09:05:48.942Z,54.30
2023-01-29T09:08:16.448Z,52.05
2023-01-29T09:10:43.961Z,57.55
2023-01-29T09:13:11.458Z,55.20
2023-01-29T09:15:38.977Z,47.53
2023-01-29T09:18:06.991Z,56.90
2023-01-29T09:20:35.226Z,53.63
2023-01-29T09:23:06.760Z,59.35
2023-01-29T09:25:34.310Z,56.00
2023-01-29T09:28:01.817Z,53.17
2023-01-29T09:30:29.503Z,56.80
2023-01-29T09:32:57.000Z,54.13
2023-01-29T09:35:24.694Z,53.47
2023-01-29T09:37:53.330Z,51.30
2023-01-29T09:40:27.502Z,52.78
2023-01-29T09:43:00.393Z,51.00
2023-01-29T09:45:29.680Z,56.10
2023-01-29T09:48:01.321Z,54.10
2023-01-29T09:50:33.269Z,53.97
2023-01-29T09:53:05.774Z,58.92
2023-01-29T09:55:40.278Z,50.60
2023-01-29T09:58:15.190Z,57.60
2023-01-29T10:00:51.466Z,54.22
2023-01-29T10:03:36.246Z,54.13
2023-01-29T10:06:21.203Z,52.85
2023-01-29T10:09:04.719Z,50.70
2023-01-29T10:11:46.273Z,57.60
2023-01-29T10:14:22.682Z,59.17
2023-01-29T10:17:05.375Z,64.95
2023-01-29T10:19:55.985Z,53.65
2023-01-29T10:22:36.773Z,54.22
2023-01-29T10:25:05.969Z,49.92
2023-01-29T10:27:38.484Z,55.05
2023-01-29T10:30:09.971Z,56.55
2023-01-29T10:32:38.447Z,52.75
2023-01-29T10:35:21.112Z,54.45
2023-01-29T10:37:48.938Z,57.25
2023-01-29T10:40:21.001Z,58.88
2023-01-29T10:42:57.702Z,57.28
2023-01-29T10:45:33.362Z,54.58
2023-01-29T10:48:43.508Z,51.85
2023-01-29T10:51:24.125Z,53.60
2023-01-29T10:54:05.182Z,52.80
2023-01-29T10:56:53.385Z,52.25
2023-01-29T10:59:39.893Z,52.13
2023-01-29T11:02:17.801Z,49.80
2023-01-29T11:04:45.921Z,51.15
2023-01-29T11:07:14.775Z,51.38
2023-01-29T11:09:47.293Z,53.08
2023-01-29T11:12:17.456Z,54.38
2023-01-29T11:14:51.611Z,53.28
2023-01-29T11:17:20.185Z,56.92
2023-01-29T11:19:51.104Z,50.88
2023-01-29T11:22:20.783Z,53.55
2023-01-29T11:25:07.830Z,65.13
2023-01-29T11:27:39.942Z,61.30
2023-01-29T11:30:17.604Z,51.72
2023-01-29T11:32:45.331Z,56.15
2023-01-29T11:35:21.831Z,53.67
2023-01-29T11:37:49.333Z,52.80
2023-01-29T11:40:37.756Z,49.58
2023-01-29T11:43:23.484Z,51.05
2023-01-29T11:45:56.154Z,52.08
2023-01-29T11:48:28.273Z,54.75
2023-01-29T11:51:00.461Z,57.42
2023-01-29T11:53:38.058Z,45.63
2023-01-29T11:56:16.719Z,56.38
2023-01-29T11:58:45.928Z,45.88
2023-01-29T12:01:16.982Z,52.38
2023-01-29T12:03:49.412Z,46.05
2023-01-29T12:06:21.105Z,49.83
2023-01-29T12:08:57.885Z,49.67
2023-01-29T12:11:28.914Z,50.45
2023-01-29T12:13:58.162Z,52.72
2023-01-29T12:16:32.943Z,48.58
2023-01-29T12:19:11.359Z,46.85
2023-01-29T12:21:47.127Z,47.67
2023-01-29T12:24:26.024Z,47.83
2023-01-29T12:27:01.190Z,51.45
2023-01-29T12:29:38.482Z,46.03
2023-01-29T12:32:19.243Z,46.60
2023-01-29T12:34:52.099Z,43.17
2023-01-29T12:37:25.738Z,42.63
2023-01-29T12:39:53.435Z,49.17
2023-01-29T12:42:22.678Z,47.30
2023-01-29T12:44:54.437Z,44.80
2023-01-29T12:47:28.407Z,43.58
2023-01-29T12:49:58.796Z,45.10
2023-01-29T12:52:37.434Z,41.05
2023-01-29T12:55:12.496Z,41.65
2023-01-29T12:57:46.872Z,41.40
2023-01-29T13:00:20.069Z,39.78
2023-01-29T13:02:57.526Z,43.83
2023-01-29T13:05:28.072Z,39.88
2023-01-29T13:07:59.711Z,39.05
2023-01-29T13:10:34.022Z,41.47
2023-01-29T13:13:06.463Z,42.30
2023-01-29T13:15:37.324Z,40.35
2023-01-29T13:18:31.839Z,40.60
2023-01-29T13:21:00.355Z,40.78
2023-01-29T13:23:34.822Z,36.25
2023-01-29T13:26:02.656Z,42.57
2023-01-29T13:28:30.484Z,43.63
2023-01-29T13:31:25.202Z,35.97
2023-01-29T13:33:57.197Z,35.47
2023-01-29T13:36:29.234Z,44.10
2023-01-29T13:39:02.255Z,43.72
2023-01-29T13:41:35.540Z,37.67
2023-01-29T13:44:03.839Z,39.03
2023-01-29T13:46:33.056Z,39.55
2023-01-29T13:49:04.893Z,35.80
2023-01-29T13:51:37.218Z,33.15
2023-01-29T13:54:09.193Z,36.22
2023-01-29T13:56:47.746Z,37.13
2023-01-29T13:59:45.636Z,34.03
2023-01-29T14:02:28.777Z,35.60
2023-01-29T14:05:33.938Z,35.08
2023-01-29T14:08:02.921Z,35.35
2023-01-29T14:10:32.521Z,34.95
2023-01-29T14:13:35.720Z,35.10
2023-01-29T14:16:34.643Z,36.17
2023-01-29T14:19:05.730Z,37.00
2023-01-29T14:21:35.925Z,35.47
2023-01-29T14:24:13.035Z,32.78
2023-01-29T14:26:47.369Z,32.28
2023-01-29T14:29:32.649Z,34.03
2023-01-29T14:32:14.222Z,31.33
2023-01-29T14:34:48.026Z,34.05
2023-01-29T14:37:32.634Z,36.28
2023-01-29T14:40:15.205Z,33.90
2023-01-29T14:42:53.336Z,36.03
2023-01-29T14:45:27.051Z,30.20
2023-01-29T14:48:19.789Z,34.50
2023-01-29T14:51:05.459Z,32.67
2023-01-29T14:53:46.667Z,30.45
2023-01-29T14:56:18.324Z,32.60
2023-01-29T14:58:49.072Z,29.27
2023-01-29T15:01:24.409Z,29.92
2023-01-29T15:03:54.608Z,30.35
2023-01-29T15:06:32.823Z,29.20
2023-01-29T15:09:07.674Z,31.85
2023-01-29T15:11:42.890Z,26.38
2023-01-29T15:14:23.820Z,23.00
2023-01-29T15:17:19.108Z,27.77
2023-01-29T15:19:48.856Z,24.33
2023-01-29T15:22:19.409Z,25.70
2023-01-29T15:24:49.105Z,30.52
2023-01-29T15:27:19.647Z,34.50
2023-01-29T15:29:52.292Z,25.15
2023-01-29T15:32:30.509Z,28.42
2023-01-29T15:35:00.260Z,26.52
2023-01-29T15:37:32.354Z,28.38
2023-01-29T15:40:00.844Z,25.48
2023-01-29T15:42:29.954Z,29.13
2023-01-29T15:44:57.500Z,27.58
2023-01-29T15:47:29.253Z,30.20
2023-01-29T15:49:58.222Z,26.80
2023-01-29T15:52:30.256Z,31.85
2023-01-29T15:55:02.893Z,30.88
2023-01-29T15:57:35.258Z,27.83
2023-01-29T16:00:04.471Z,34.38
2023-01-29T16:02:40.914Z,31.90
2023-01-29T16:05:14.977Z,32.75
2023-01-29T16:07:45.256Z,31.52
2023-01-29T16:10:18.744Z,31.90
2023-01-29T16:12:51.250Z,37.67
2023-01-29T16:15:29.689Z,33.50
2023-01-29T16:17:57.624Z,32.53
2023-01-29T16:20:37.476Z,33.97
2023-01-29T16:23:07.896Z,32.03
2023-01-29T16:25:39.178Z,38.03
2023-01-29T16:28:10.896Z,32.65
2023-01-29T16:30:39.622Z,38.38
2023-01-29T16:33:09.026Z,36.60
2023-01-29T16:35:37.060Z,32.92
2023-01-29T16:38:08.459Z,33.67
2023-01-29T16:40:38.808Z,36.47
2023-01-29T16:43:49.343Z,34.30
2023-01-29T16:46:27.251Z,35.90
2023-01-29T16:48:55.166Z,34.85
2023-01-29T16:51:26.902Z,34.25
2023-01-29T16:53:59.791Z,35.88
2023-01-29T16:56:30.639Z,33.08
2023-01-29T16:58:59.042Z,36.38
2023-01-29T17:01:29.817Z,33.20
2023-01-29T17:04:07.507Z,37.80
2023-01-29T17:06:35.931Z,40.92
2023-01-29T17:09:06.088Z,39.58
2023-01-29T17:11:37.183Z,36.70
2023-01-29T17:14:06.561Z,34.28
2023-01-29T17:16:37.368Z,37.47
2023-01-29T17:19:17.646Z,35.53
2023-01-29T17:21:45.207Z,33.05
2023-01-29T17:24:14.032Z,39.95
2023-01-29T17:26:42.095Z,38.38
2023-01-29T17:29:15.348Z,34.67
2023-01-29T17:31:42.941Z,38.70
2023-01-29T17:34:14.236Z,36.58
2023-01-29T17:36:41.854Z,37.22
2023-01-29T17:39:17.782Z,33.65
2023-01-29T17:41:48.155Z,39.60
2023-01-29T17:44:15.934Z,38.28
2023-01-29T17:46:43.858Z,34.08
2023-01-29T17:49:22.584Z,36.45
2023-01-29T17:51:50.534Z,42.03
2023-01-29T17:54:19.445Z,36.22
2023-01-29T17:56:47.086Z,33.83
2023-01-29T17:59:15.636Z,35.17
2023-01-29T18:01:43.511Z,39.05
2023-01-29T18:04:11.113Z,37.25
2023-01-29T18:06:39.782Z,34.40
2023-01-29T18:09:07.420Z,33.67
2023-01-29T18:11:36.316Z,33.10
2023-01-29T18:14:13.614Z,38.22
2023-01-29T18:16:43.014Z,36.75
2023-01-29T18:19:15.549Z,35.63
2023-01-29T18:21:43.037Z,34.28
2023-01-29T18:24:10.600Z,39.20
2023-01-29T18:26:39.804Z,38.20
2023-01-29T18:29:07.292Z,35.67
2023-01-29T18:31:34.843Z,45.95
2023-01-29T18:34:02.353Z,39.38
2023-01-29T18:36:29.919Z,40.90
2023-01-29T18:38:57.742Z,40.97
2023-01-29T18:41:25.457Z,37.63
2023-01-29T18:43:54.275Z,40.08
2023-01-29T18:46:24.082Z,44.10
2023-01-29T18:48:51.683Z,44.25
2023-01-29T18:51:19.207Z,37.75
2023-01-29T18:53:50.415Z,40.58
2023-01-29T18:56:18.240Z,38.95
2023-01-29T18:58:52.065Z,30.88
2023-01-29T19:01:21.914Z,38.05
2023-01-29T19:03:49.442Z,40.58
2023-01-29T19:06:17.076Z,35.35
2023-01-29T19:08:44.686Z,32.83
2023-01-29T19:11:12.746Z,31.98
2023-01-29T19:13:42.384Z,35.00
2023-01-29T19:16:10.656Z,40.28
2023-01-29T19:18:39.480Z,32.75
2023-01-29T19:21:08.658Z,34.92
2023-01-29T19:23:36.150Z,32.00
2023-01-29T19:26:03.711Z,35.35
2023-01-29T19:28:31.156Z,30.83
2023-01-29T19:30:58.775Z,36.38
2023-01-29T19:33:27.579Z,37.35
2023-01-29T19:35:57.680Z,35.00
2023-01-29T19:38:25.813Z,38.50
2023-01-29T19:40:54.980Z,43.92
2023-01-29T19:43:22.487Z,34.72
2023-01-29T19:45:50.946Z,28.52
2023-01-29T19:48:21.088Z,32.00
2023-01-29T19:50:52.619Z,36.40
2023-01-29T19:53:22.725Z,33.10
2023-01-29T19:55:58.326Z,29.73
2023-01-29T19:58:26.020Z,35.03
2023-01-29T20:00:57.751Z,29.17
2023-01-29T20:03:25.660Z,30.50
2023-01-29T20:05:53.306Z,33.67
2023-01-29T20:08:22.250Z,28.10
2023-01-29T20:10:50.345Z,26.15
2023-01-29T20:13:17.902Z,29.45
2023-01-29T20:15:46.465Z,30.23
2023-01-29T20:18:14.347Z,29.73
2023-01-29T20:20:42.894Z,27.85
2023-01-29T20:23:11.012Z,29.00
2023-01-29T20:25:40.358Z,28.75
2023-01-29T20:28:11.490Z,35.17
2023-01-29T20:30:40.153Z,27.20
2023-01-29T20:33:08.388Z,35.25
2023-01-29T20:35:37.180Z,27.75
2023-01-29T20:38:05.929Z,30.23
2023-01-29T20:40:33.455Z,31.95
2023-01-29T20:43:02.311Z,30.08
2023-01-29T20:45:32.821Z,35.30
2023-01-29T20:48:00.306Z,34.03
2023-01-29T20:50:27.914Z,32.80
2023-01-29T20:52:55.375Z,35.53
2023-01-29T20:55:22.927Z,32.42
2023-01-29T20:58:05.823Z,29.27
2023-01-29T21:00:35.678Z,28.38
2023-01-29T21:03:03.266Z,30.27
2023-01-29T21:05:30.756Z,37.47
2023-01-29T21:07:58.294Z,32.45
2023-01-29T21:10:25.751Z,34.20
2023-01-29T21:12:54.501Z,29.50
2023-01-29T21:15:23.304Z,31.98
2023-01-29T21:17:52.562Z,31.20
2023-01-29T21:20:20.345Z,34.13
2023-01-29T21:22:49.135Z,33.47
2023-01-29T21:25:20.027Z,29.67
2023-01-29T21:27:47.565Z,31.10
2023-01-29T21:30:15.547Z,33.13
2023-01-29T21:32:43.146Z,57.53
2023-01-29T21:35:12.167Z,34.40
2023-01-29T21:37:39.707Z,33.17
2023-01-29T21:40:09.110Z,34.13
2023-01-29T21:42:54.104Z,32.40
2023-01-29T21:45:21.689Z,33.77
2023-01-29T21:47:49.279Z,32.00
2023-01-29T21:50:18.905Z,37.58
2023-01-29T21:52:46.489Z,34.15
2023-01-29T21:55:14.058Z,34.75
2023-01-29T21:57:42.907Z,35.05
2023-01-29T22:00:12.383Z,31.90
2023-01-29T22:02:40.195Z,41.55
2023-01-29T22:05:18.629Z,34.85
2023-01-29T22:07:49.272Z,35.08
2023-01-29T22:10:17.960Z,31.20
2023-01-29T22:12:46.045Z,38.28
2023-01-29T22:15:14.898Z,34.78
2023-01-29T22:17:42.571Z,31.00
2023-01-29T22:20:11.947Z,32.88
2023-01-29T22:22:39.469Z,35.00
2023-01-29T22:25:09.412Z,30.63
2023-01-29T22:27:36.994Z,35.63
2023-01-29T22:30:05.066Z,38.80
2023-01-29T22:32:33.208Z,39.55
2023-01-29T22:35:00.846Z,33.13
2023-01-29T22:37:28.435Z,31.23
2023-01-29T22:39:55.920Z,34.63
2023-01-29T22:42:24.751Z,42.78
2023-01-29T22:44:52.244Z,37.67
2023-01-29T22:47:19.837Z,35.08
2023-01-29T22:49:49.902Z,34.83
2023-01-29T22:52:21.079Z,40.40
2023-01-29T22:54:48.611Z,44.72
2023-01-29T22:57:16.666Z,38.88
2023-01-29T22:59:45.934Z,39.17
2023-01-29T23:02:13.399Z,32.72
2023-01-29T23:04:40.938Z,38.80
2023-01-29T23:07:08.420Z,34.92
2023-01-29T23:09:35.906Z,35.70
2023-01-29T23:12:03.400Z,42.92
2023-01-29T23:14:30.884Z,36.42
2023-01-29T23:16:59.708Z,36.15
2023-01-29T23:19:27.253Z,42.28
2023-01-29T23:21:54.733Z,40.63
2023-01-29T23:24:22.451Z,37.50
2023-01-29T23:27:07.476Z,39.60
2023-01-29T23:29:34.953Z,37.88
2023-01-29T23:32:04.411Z,37.50
2023-01-29T23:34:31.924Z,37.03
2023-01-29T23:36:59.800Z,36.60
2023-01-29T23:39:27.344Z,40.90
2023-01-29T23:41:54.848Z,34.40
2023-01-29T23:44:22.364Z,40.92
2023-01-29T23:46:49.952Z,47.40
2023-01-29T23:49:19.374Z,40.60
2023-01-29T23:51:48.588Z,37.17
2023-01-29T23:54:16.435Z,41.08
2023-01-29T23:56:44.434Z,42.22
2023-01-29T23:59:12.196Z,38.45
